Time;durP1;ratioP1;P1;durP2;ratioP2;P2;SDS_P1;SDS_P2;PMS_P1;PMS_P2;Temp;Humidity;BMP_temperature;BMP_pressure;BME280_temperature;BME280_humidity;BME280_pressure;Samples;Min_cycle;Max_cycle;Signal;HPM_P1;HPM_P2
2022/04/15 00:02:10;;;;;;;14.00;8.45;;;8.20;99.90;;;;;;5015337;28;20040;-66
2022/04/15 00:04:36;;;;;;;12.43;8.60;;;8.20;99.90;;;;;;5001794;28;20026;-67
2022/04/15 00:07:02;;;;;;;15.30;9.88;;;8.10;99.90;;;;;;5017131;28;20390;-66
2022/04/15 00:09:30;;;;;;;15.77;9.00;;;8.20;99.90;;;;;;5017412;28;20131;-68
2022/04/15 00:12:00;;;;;;;13.32;9.13;;;8.10;99.90;;;;;;5017653;28;20045;-67
2022/04/15 00:14:26;;;;;;;16.67;8.45;;;8.10;99.90;;;;;;5014199;28;20041;-67
2022/04/15 00:16:51;;;;;;;13.57;8.60;;;8.00;99.90;;;;;;4981153;28;20100;-67
2022/04/15 00:19:17;;;;;;;12.68;7.90;;;8.00;99.90;;;;;;4997689;28;20037;-66
2022/04/15 00:21:43;;;;;;;14.50;8.98;;;8.00;99.90;;;;;;4997720;28;20041;-66
2022/04/15 00:24:09;;;;;;;18.23;8.35;;;7.90;99.90;;;;;;4997953;28;20045;-67
2022/04/15 00:26:34;;;;;;;12.23;8.32;;;7.90;99.90;;;;;;5034196;28;20052;-66
2022/04/15 00:29:00;;;;;;;13.85;8.23;;;7.90;99.90;;;;;;5017022;28;20046;-66
2022/04/15 00:31:26;;;;;;;14.65;8.25;;;7.90;99.90;;;;;;5016865;28;20048;-67
2022/04/15 00:33:52;;;;;;;15.35;7.75;;;7.80;99.90;;;;;;5016901;28;20068;-66
2022/04/15 00:36:17;;;;;;;12.80;8.27;;;7.70;99.90;;;;;;5015646;28;20052;-66
2022/04/15 00:38:43;;;;;;;14.90;8.07;;;7.80;99.90;;;;;;5016753;28;20041;-66
2022/04/15 00:41:14;;;;;;;13.57;8.07;;;7.80;99.90;;;;;;5034466;28;20041;-68
2022/04/15 00:43:40;;;;;;;17.58;9.07;;;7.80;99.90;;;;;;5016898;28;20061;-67
2022/04/15 00:46:10;;;;;;;13.50;8.80;;;7.80;99.90;;;;;;5016024;28;20397;-67
2022/04/15 00:48:36;;;;;;;14.02;8.60;;;7.70;99.90;;;;;;5034140;28;20049;-66
2022/04/15 00:51:03;;;;;;;13.77;9.15;;;7.70;99.90;;;;;;5034546;28;20106;-67
2022/04/15 00:53:29;;;;;;;13.45;8.77;;;7.70;99.90;;;;;;5034499;28;20129;-67
2022/04/15 00:56:04;;;;;;;12.82;8.93;;;7.70;99.90;;;;;;5001741;28;20053;-66
2022/04/15 00:58:33;;;;;;;13.85;9.07;;;7.70;99.90;;;;;;4980935;28;20038;-66
2022/04/15 01:01:00;;;;;;;17.90;9.55;;;7.70;99.90;;;;;;4981059;28;20187;-68
2022/04/15 01:03:26;;;;;;;17.20;8.77;;;7.70;99.90;;;;;;4997032;28;20103;-66
2022/04/15 01:05:57;;;;;;;19.83;9.93;;;7.70;99.90;;;;;;5010861;28;20057;-66
2022/04/15 01:08:26;;;;;;;14.18;9.48;;;7.60;99.90;;;;;;5016607;28;20052;-65
2022/04/15 01:10:54;;;;;;;14.40;9.30;;;7.70;99.90;;;;;;5016689;28;20053;-66
2022/04/15 01:13:21;;;;;;;15.70;9.88;;;7.60;99.90;;;;;;5016709;28;20045;-68
2022/04/15 01:15:48;;;;;;;14.82;9.02;;;7.60;99.90;;;;;;5016354;28;20100;-66
2022/04/15 01:18:14;;;;;;;14.27;8.70;;;7.50;99.90;;;;;;5015975;28;20045;-67
2022/04/15 01:20:42;;;;;;;17.10;9.40;;;7.50;99.90;;;;;;5016517;28;20052;-66
2022/04/15 01:23:08;;;;;;;12.40;8.52;;;7.50;99.90;;;;;;5016779;28;20045;-67
2022/04/15 01:25:34;;;;;;;12.23;8.40;;;7.50;99.90;;;;;;5016148;28;20124;-66
2022/04/15 01:28:00;;;;;;;14.13;8.23;;;7.50;99.90;;;;;;5016122;28;20053;-66
2022/04/15 01:30:26;;;;;;;11.77;8.18;;;7.50;99.90;;;;;;5016465;28;20056;-66
2022/04/15 01:32:51;;;;;;;13.13;7.68;;;7.40;99.90;;;;;;5016008;28;20042;-68
2022/04/15 01:35:18;;;;;;;13.25;8.70;;;7.30;99.90;;;;;;5007167;28;20042;-66
2022/04/15 01:37:46;;;;;;;18.80;8.38;;;7.30;99.90;;;;;;4996288;28;20096;-66
2022/04/15 01:40:13;;;;;;;13.15;7.80;;;7.30;99.90;;;;;;4996689;28;20045;-66
2022/04/15 01:42:40;;;;;;;13.05;8.15;;;7.30;99.90;;;;;;4996821;28;20374;-67
2022/04/15 01:45:08;;;;;;;12.55;8.52;;;7.30;99.90;;;;;;5020944;28;20370;-67
2022/04/15 01:47:34;;;;;;;13.75;7.68;;;7.30;99.90;;;;;;5015557;28;20053;-66
2022/04/15 01:50:00;;;;;;;10.25;7.65;;;7.30;99.90;;;;;;5016098;28;20077;-67
2022/04/15 01:52:26;;;;;;;12.10;7.78;;;7.30;99.90;;;;;;5003239;28;20080;-67
2022/04/15 01:54:52;;;;;;;11.27;6.68;;;7.30;99.90;;;;;;5020088;28;20103;-66
2022/04/15 01:57:17;;;;;;;14.43;7.70;;;7.40;99.90;;;;;;5019415;28;20048;-67
2022/04/15 01:59:43;;;;;;;10.38;6.68;;;7.40;99.90;;;;;;5019934;28;20077;-66
2022/04/15 02:02:10;;;;;;;10.88;7.03;;;7.30;99.90;;;;;;5019881;28;20038;-66
2022/04/15 02:04:36;;;;;;;10.50;7.15;;;7.30;99.90;;;;;;5019495;28;20068;-66
2022/04/15 02:07:02;;;;;;;13.10;7.45;;;7.30;99.90;;;;;;5019563;28;20077;-66
2022/04/15 02:09:28;;;;;;;10.52;7.50;;;7.30;99.90;;;;;;5003494;28;20037;-67
2022/04/15 02:11:53;;;;;;;11.52;7.32;;;7.30;99.90;;;;;;5037490;28;20056;-66
2022/04/15 02:14:20;;;;;;;14.93;8.13;;;7.30;99.90;;;;;;5018244;28;20038;-67
2022/04/15 02:16:46;;;;;;;11.38;7.45;;;7.30;99.90;;;;;;4983157;28;20372;-68
2022/04/15 02:19:12;;;;;;;15.10;8.32;;;7.30;99.90;;;;;;5000281;28;20038;-66
2022/04/15 02:21:38;;;;;;;15.13;8.38;;;7.30;99.90;;;;;;4999966;28;20038;-66
2022/04/15 02:24:04;;;;;;;11.45;7.93;;;7.30;99.90;;;;;;5000093;28;20144;-67
2022/04/15 02:26:30;;;;;;;12.40;8.50;;;7.30;99.90;;;;;;5017735;28;20347;-67
2022/04/15 02:28:56;;;;;;;15.10;8.23;;;7.30;99.90;;;;;;5019596;28;20048;-66
2022/04/15 02:31:21;;;;;;;12.18;8.48;;;7.40;99.90;;;;;;5002879;28;20502;-66
2022/04/15 02:33:47;;;;;;;15.48;8.52;;;7.40;99.90;;;;;;5019106;28;20045;-66
2022/04/15 02:36:13;;;;;;;15.20;9.63;;;7.40;99.90;;;;;;5036092;28;20386;-67
2022/04/15 02:38:39;;;;;;;15.77;9.02;;;7.40;99.90;;;;;;5019408;28;20091;-66
2022/04/15 02:41:06;;;;;;;13.13;9.05;;;7.40;99.90;;;;;;5002895;28;20048;-66
2022/04/15 02:43:31;;;;;;;13.63;8.82;;;7.40;99.90;;;;;;5018655;28;20498;-66
2022/04/15 02:46:03;;;;;;;13.23;9.23;;;7.40;99.90;;;;;;5018362;28;20045;-66
2022/04/15 02:48:32;;;;;;;12.55;9.02;;;7.40;99.90;;;;;;5019364;28;20089;-69
2022/04/15 02:50:59;;;;;;;14.48;8.65;;;7.40;99.90;;;;;;5019169;28;20107;-67
2022/04/15 02:53:25;;;;;;;13.38;9.15;;;7.30;99.90;;;;;;5018891;28;20041;-66
2022/04/15 02:55:52;;;;;;;15.63;9.55;;;7.30;99.90;;;;;;4988959;28;20474;-67
2022/04/15 02:58:17;;;;;;;14.70;9.35;;;7.40;99.90;;;;;;4999507;28;20045;-66
2022/04/15 03:00:43;;;;;;;12.40;9.32;;;7.30;99.90;;;;;;4982916;28;20316;-67
2022/04/15 03:03:09;;;;;;;15.05;10.02;;;7.40;99.90;;;;;;5016293;28;20042;-66
2022/04/15 03:05:34;;;;;;;13.30;9.30;;;7.40;99.90;;;;;;5009600;28;20042;-67
2022/04/15 03:08:00;;;;;;;14.52;9.52;;;7.40;99.90;;;;;;5035802;28;20049;-67
2022/04/15 03:10:26;;;;;;;15.57;9.43;;;7.40;99.90;;;;;;5018863;28;20095;-67
2022/04/15 03:12:51;;;;;;;11.45;9.13;;;7.40;99.90;;;;;;5018579;28;20111;-67
2022/04/15 03:15:17;;;;;;;14.02;8.90;;;7.50;99.90;;;;;;5018062;28;20068;-66
2022/04/15 03:17:43;;;;;;;12.90;9.13;;;7.50;99.90;;;;;;5018236;28;20045;-66
2022/04/15 03:20:10;;;;;;;14.77;9.07;;;7.50;99.90;;;;;;5035524;28;20560;-68
2022/04/15 03:22:37;;;;;;;14.55;8.80;;;7.50;99.90;;;;;;5034923;28;20124;-69
2022/04/15 03:25:04;;;;;;;12.32;8.35;;;7.50;99.90;;;;;;5032040;28;20045;-68
2022/04/15 03:27:30;;;;;;;12.95;7.90;;;7.50;99.90;;;;;;5035095;28;20053;-68
2022/04/15 03:29:56;;;;;;;11.93;8.13;;;7.60;99.90;;;;;;5034345;28;20045;-68
2022/04/15 03:32:21;;;;;;;12.18;7.53;;;7.60;99.90;;;;;;5033974;28;20053;-67
2022/04/15 03:34:47;;;;;;;9.95;7.45;;;7.50;99.90;;;;;;5032885;28;20033;-67
2022/04/15 03:37:12;;;;;;;11.90;7.25;;;7.60;99.90;;;;;;5034108;28;20099;-67
2022/04/15 03:39:38;;;;;;;12.25;7.78;;;7.60;99.90;;;;;;5034126;28;20447;-67
2022/04/15 03:42:07;;;;;;;11.45;8.02;;;7.70;99.90;;;;;;5034179;28;20033;-69
2022/04/15 03:44:33;;;;;;;11.48;7.63;;;7.70;99.90;;;;;;5033455;28;20227;-67
2022/04/15 03:46:58;;;;;;;12.27;7.63;;;7.70;99.90;;;;;;5017573;28;20120;-70
2022/04/15 03:49:24;;;;;;;9.63;7.43;;;7.70;99.90;;;;;;5018106;28;20442;-67
2022/04/15 03:51:49;;;;;;;12.05;7.35;;;7.80;99.90;;;;;;5018351;28;20044;-68
2022/04/15 03:54:15;;;;;;;9.80;6.72;;;7.70;99.90;;;;;;5017564;28;20485;-67
2022/04/15 03:56:41;;;;;;;12.75;7.50;;;7.70;99.90;;;;;;5017320;28;20095;-68
2022/04/15 03:59:08;;;;;;;10.10;6.82;;;7.70;99.90;;;;;;5017889;28;20033;-67
2022/04/15 04:01:34;;;;;;;8.80;6.90;;;7.70;99.90;;;;;;5017321;28;20418;-66
2022/04/15 04:03:59;;;;;;;11.15;6.60;;;7.70;99.90;;;;;;5017685;28;20148;-67
2022/04/15 04:06:25;;;;;;;10.15;7.10;;;7.70;99.90;;;;;;4999518;28;20042;-67
2022/04/15 04:08:50;;;;;;;14.00;7.25;;;7.70;99.90;;;;;;4981837;28;20053;-68
2022/04/15 04:11:17;;;;;;;11.25;6.57;;;7.70;99.90;;;;;;4998091;28;20087;-68
2022/04/15 04:13:44;;;;;;;11.45;7.32;;;7.80;99.90;;;;;;4996968;28;20056;-67
2022/04/15 04:16:11;;;;;;;10.38;7.57;;;7.70;99.90;;;;;;4995837;28;20124;-68
2022/04/15 04:18:38;;;;;;;12.52;7.75;;;7.70;99.90;;;;;;5017402;28;20103;-68
2022/04/15 04:21:03;;;;;;;10.75;7.72;;;7.70;99.90;;;;;;5017474;28;20045;-67
2022/04/15 04:23:30;;;;;;;12.18;7.40;;;7.70;99.90;;;;;;5001057;28;20037;-67
2022/04/15 04:25:56;;;;;;;12.88;7.38;;;7.70;99.90;;;;;;5000202;28;20077;-67
2022/04/15 04:28:21;;;;;;;12.75;7.40;;;7.70;99.90;;;;;;5017046;28;20111;-68
2022/04/15 04:30:47;;;;;;;13.40;8.20;;;7.70;99.90;;;;;;5017011;28;20132;-68
2022/04/15 04:33:13;;;;;;;12.18;7.32;;;7.80;99.90;;;;;;5017014;28;20072;-67
2022/04/15 04:35:38;;;;;;;10.30;7.13;;;7.80;99.90;;;;;;5034136;28;20041;-67
2022/04/15 04:38:07;;;;;;;11.68;8.43;;;7.80;99.90;;;;;;5000630;28;20454;-67
2022/04/15 04:40:34;;;;;;;13.32;7.72;;;7.80;99.90;;;;;;5016901;28;20060;-67
2022/04/15 04:43:01;;;;;;;10.52;7.05;;;7.80;99.90;;;;;;5017207;28;20462;-67
2022/04/15 04:45:27;;;;;;;13.40;7.50;;;7.80;99.90;;;;;;5007251;28;20129;-69
2022/04/15 04:47:53;;;;;;;11.00;8.45;;;7.90;99.90;;;;;;4996839;28;20128;-67
2022/04/15 04:50:20;;;;;;;12.80;7.60;;;7.90;99.90;;;;;;4981133;28;20058;-67
2022/04/15 04:52:47;;;;;;;10.10;7.03;;;7.90;99.90;;;;;;4980899;28;20049;-68
2022/04/15 04:55:13;;;;;;;10.55;7.63;;;7.90;99.90;;;;;;5004036;28;20041;-67
2022/04/15 04:57:42;;;;;;;11.48;7.70;;;7.90;99.90;;;;;;5032694;28;20136;-68
2022/04/15 05:00:09;;;;;;;12.63;7.78;;;7.90;99.90;;;;;;5032149;28;20417;-67
2022/04/15 05:02:35;;;;;;;12.70;7.22;;;8.00;99.90;;;;;;5032712;28;20064;-69
2022/04/15 05:05:01;;;;;;;11.20;7.38;;;8.00;99.90;;;;;;5028849;28;20079;-69
2022/04/15 05:07:27;;;;;;;11.50;7.22;;;8.00;99.90;;;;;;5031237;28;20064;-70
2022/04/15 05:09:53;;;;;;;10.48;6.70;;;8.00;99.90;;;;;;5030851;28;20080;-68
2022/04/15 05:12:18;;;;;;;11.75;7.70;;;8.00;99.90;;;;;;5030461;28;20443;-67
2022/04/15 05:14:44;;;;;;;11.25;7.15;;;8.00;99.90;;;;;;5031686;28;20077;-67
2022/04/15 05:17:10;;;;;;;13.10;7.68;;;8.00;99.90;;;;;;5029728;28;20041;-68
2022/04/15 05:19:35;;;;;;;12.00;7.32;;;8.00;99.90;;;;;;5033003;28;20362;-67
2022/04/15 05:22:01;;;;;;;12.20;7.05;;;8.00;99.90;;;;;;5031603;28;20370;-68
2022/04/15 05:24:26;;;;;;;12.93;7.55;;;8.10;99.90;;;;;;5031400;28;20045;-70
2022/04/15 05:26:52;;;;;;;10.93;7.32;;;8.10;99.90;;;;;;4999253;28;20056;-68
2022/04/15 05:29:18;;;;;;;13.38;6.82;;;8.20;99.90;;;;;;5036897;28;20128;-67
2022/04/15 05:31:43;;;;;;;12.85;7.13;;;8.20;99.90;;;;;;5037920;28;20047;-65
2022/04/15 05:34:09;;;;;;;11.13;6.65;;;8.20;99.90;;;;;;5036892;28;20126;-68
2022/04/15 05:36:35;;;;;;;10.80;6.50;;;8.30;99.90;;;;;;5032964;28;20033;-68
2022/04/15 05:39:00;;;;;;;11.60;6.75;;;8.30;99.90;;;;;;5037042;28;20045;-67
2022/04/15 05:41:26;;;;;;;12.10;6.45;;;8.30;99.90;;;;;;5035774;28;20049;-70
2022/04/15 05:43:52;;;;;;;11.43;6.57;;;8.40;99.90;;;;;;5033706;28;20160;-68
2022/04/15 05:46:19;;;;;;;12.00;6.85;;;8.40;99.90;;;;;;5019262;28;20041;-67
2022/04/15 05:48:45;;;;;;;13.27;7.00;;;8.40;99.90;;;;;;5036402;28;20485;-71
2022/04/15 05:51:11;;;;;;;9.07;6.32;;;8.40;99.90;;;;;;5036721;28;20466;-71
2022/04/15 05:53:38;;;;;;;10.10;6.65;;;8.40;99.90;;;;;;5034607;28;20069;-72
2022/04/15 05:56:04;;;;;;;12.23;6.82;;;8.40;99.90;;;;;;5036885;28;20029;-68
2022/04/15 05:58:29;;;;;;;9.48;6.18;;;8.50;99.90;;;;;;5036402;28;20045;-68
2022/04/15 06:00:56;;;;;;;9.85;7.25;;;8.60;99.90;;;;;;5036229;28;20069;-69
2022/04/15 06:03:22;;;;;;;8.52;6.00;;;8.60;99.90;;;;;;5019496;28;20081;-65
2022/04/15 06:05:49;;;;;;;8.77;6.38;;;8.60;99.90;;;;;;5010833;28;20049;-68
2022/04/15 06:08:18;;;;;;;11.05;6.85;;;8.60;99.90;;;;;;5025847;28;20086;-72
2022/04/15 06:10:43;;;;;;;13.65;6.68;;;8.70;99.90;;;;;;5035989;28;20034;-68
2022/04/15 06:13:14;;;;;;;11.82;6.55;;;8.60;99.90;;;;;;5018367;28;20335;-69
2022/04/15 06:15:50;;;;;;;10.68;5.97;;;8.70;99.90;;;;;;5019036;28;20132;-72
2022/04/15 06:18:18;;;;;;;16.95;7.95;;;8.70;99.90;;;;;;5035534;28;20041;-72
2022/04/15 06:20:44;;;;;;;20.90;7.97;;;8.70;99.90;;;;;;5018217;28;20434;-68
2022/04/15 06:23:10;;;;;;;11.90;7.40;;;8.80;99.90;;;;;;5018300;28;20041;-67
2022/04/15 06:25:36;;;;;;;14.23;7.72;;;8.70;99.90;;;;;;5017676;28;20098;-70
2022/04/15 06:28:01;;;;;;;12.55;7.30;;;8.70;99.90;;;;;;5023168;28;20502;-68
2022/04/15 06:30:27;;;;;;;14.45;8.20;;;8.70;99.90;;;;;;5036809;28;20037;-70
2022/04/15 06:32:53;;;;;;;11.05;7.80;;;8.80;99.90;;;;;;5033057;28;20064;-69
2022/04/15 06:35:19;;;;;;;11.35;7.70;;;8.90;99.90;;;;;;5007047;28;20526;-68
2022/04/15 06:37:46;;;;;;;9.25;7.60;;;8.90;99.90;;;;;;5018883;28;20037;-68
2022/04/15 06:40:12;;;;;;;11.68;8.23;;;9.00;99.90;;;;;;5019165;28;20356;-68
2022/04/15 06:42:37;;;;;;;9.93;7.88;;;9.00;99.90;;;;;;5018890;28;20045;-68
2022/04/15 06:45:04;;;;;;;14.13;8.55;;;9.00;99.90;;;;;;5035957;28;20068;-68
2022/04/15 06:47:29;;;;;;;10.55;8.07;;;9.00;99.90;;;;;;5036039;28;20463;-69
2022/04/15 06:49:55;;;;;;;20.20;7.78;;;9.00;99.90;;;;;;5036419;28;20037;-69
2022/04/15 06:52:21;;;;;;;11.82;7.78;;;9.00;99.90;;;;;;5018607;28;20041;-68
2022/04/15 06:54:47;;;;;;;9.13;6.55;;;9.00;99.90;;;;;;5018630;28;20377;-69
2022/04/15 06:57:13;;;;;;;10.48;6.13;;;8.90;99.90;;;;;;5018921;28;20118;-67
2022/04/15 06:59:39;;;;;;;7.85;5.75;;;8.80;99.90;;;;;;5018792;28;20454;-68
2022/04/15 07:02:05;;;;;;;11.07;6.32;;;8.90;99.90;;;;;;5018117;28;20037;-68
2022/04/15 07:04:32;;;;;;;10.05;6.85;;;9.00;99.90;;;;;;5035771;28;20037;-68
2022/04/15 07:06:58;;;;;;;8.23;5.90;;;8.90;99.90;;;;;;4983035;28;20054;-69
2022/04/15 07:09:23;;;;;;;6.53;5.25;;;9.10;99.90;;;;;;5016361;28;20125;-68
2022/04/15 07:11:50;;;;;;;7.72;5.32;;;9.00;99.90;;;;;;4998841;28;20126;-68
2022/04/15 07:14:16;;;;;;;7.38;4.90;;;9.10;99.90;;;;;;5015964;28;20092;-69
2022/04/15 07:16:41;;;;;;;7.38;4.63;;;9.40;99.90;;;;;;5033653;28;20037;-69
2022/04/15 07:19:07;;;;;;;7.30;4.53;;;9.50;99.90;;;;;;5036014;28;20038;-69
2022/04/15 07:21:37;;;;;;;5.43;4.10;;;9.60;99.90;;;;;;5035303;28;20042;-69
2022/04/15 07:24:04;;;;;;;9.52;5.75;;;9.50;99.90;;;;;;5018521;28;20049;-68
2022/04/15 07:26:30;;;;;;;5.03;3.10;;;9.60;99.90;;;;;;5001811;28;20088;-69
2022/04/15 07:28:56;;;;;;;6.15;3.35;;;9.70;99.90;;;;;;5016127;28;20076;-68
2022/04/15 07:31:22;;;;;;;4.95;3.22;;;9.90;99.90;;;;;;4981905;28;20064;-68
2022/04/15 07:33:49;;;;;;;5.95;3.58;;;9.60;99.90;;;;;;5010938;28;20056;-69
2022/04/15 07:39:01;;;;;;;6.72;3.92;;;9.20;99.90;;;;;;5004263;28;20049;-69
2022/04/15 07:41:26;;;;;;;5.97;4.10;;;9.30;99.90;;;;;;5035381;28;20099;-68
2022/04/15 07:43:52;;;;;;;5.45;3.90;;;9.30;99.90;;;;;;5017703;28;20057;-68
2022/04/15 07:46:18;;;;;;;18.20;4.82;;;9.40;99.90;;;;;;5002735;28;20077;-68
2022/04/15 07:48:44;;;;;;;6.88;4.25;;;9.40;99.90;;;;;;4997174;28;20073;-69
2022/04/15 07:51:09;;;;;;;10.05;6.03;;;9.40;99.90;;;;;;5015789;28;20038;-69
2022/04/15 07:53:35;;;;;;;5.90;4.47;;;9.40;99.90;;;;;;5015123;28;20494;-68
2022/04/15 07:56:01;;;;;;;6.53;4.53;;;9.50;99.90;;;;;;4993552;28;20378;-69
2022/04/15 07:58:27;;;;;;;5.88;4.28;;;9.60;99.90;;;;;;5035274;28;20116;-69
2022/04/15 08:00:53;;;;;;;5.88;3.65;;;9.50;99.90;;;;;;5018017;28;20116;-68
2022/04/15 08:03:20;;;;;;;6.43;4.15;;;9.50;99.90;;;;;;5034621;28;20183;-69
2022/04/15 08:05:47;;;;;;;10.85;4.63;;;9.50;99.90;;;;;;5007346;28;20100;-69
2022/04/15 08:08:12;;;;;;;6.78;4.05;;;9.60;99.90;;;;;;4997923;28;20360;-68
2022/04/15 08:10:38;;;;;;;5.15;3.25;;;9.50;99.90;;;;;;5014695;28;20053;-67
2022/04/15 08:13:05;;;;;;;5.90;3.90;;;9.50;99.90;;;;;;5013961;28;20046;-69
2022/04/15 08:15:31;;;;;;;5.90;3.45;;;9.50;99.90;;;;;;5022907;28;20037;-68
2022/04/15 08:17:57;;;;;;;8.52;4.15;;;9.30;99.90;;;;;;5000991;28;20072;-68
2022/04/15 08:20:25;;;;;;;5.85;3.30;;;9.30;99.90;;;;;;5034751;28;20095;-69
2022/04/15 08:22:50;;;;;;;5.75;3.10;;;9.40;99.90;;;;;;5034392;28;20111;-69
2022/04/15 08:25:16;;;;;;;4.45;3.30;;;9.40;99.90;;;;;;5011438;28;20045;-69
2022/04/15 08:27:41;;;;;;;5.22;3.35;;;9.30;99.90;;;;;;4997576;28;20558;-69
2022/04/15 08:30:08;;;;;;;4.43;2.95;;;9.20;99.90;;;;;;4981233;28;20045;-69
2022/04/15 08:32:35;;;;;;;5.85;3.10;;;9.20;99.90;;;;;;5014331;28;20049;-69
2022/04/15 08:35:08;;;;;;;5.57;3.17;;;9.50;99.90;;;;;;5000711;28;20033;-70
2022/04/15 08:37:34;;;;;;;6.18;3.03;;;9.40;99.90;;;;;;5016960;28;20136;-69
2022/04/15 08:40:00;;;;;;;6.70;3.53;;;9.40;99.90;;;;;;5034496;28;20033;-70
2022/04/15 08:42:26;;;;;;;7.22;3.38;;;9.30;99.90;;;;;;5033950;28;20107;-70
2022/04/15 08:44:53;;;;;;;5.40;3.60;;;9.20;99.90;;;;;;5014038;28;20049;-69
2022/04/15 08:47:20;;;;;;;4.97;3.53;;;9.20;99.90;;;;;;5014488;28;20386;-68
2022/04/15 08:49:47;;;;;;;5.82;3.45;;;9.10;99.90;;;;;;4964792;28;20387;-69
2022/04/15 08:52:15;;;;;;;5.53;3.33;;;9.00;99.90;;;;;;5013870;28;20486;-69
2022/04/15 08:54:41;;;;;;;5.20;3.53;;;9.20;99.90;;;;;;4997658;28;20056;-69
2022/04/15 08:57:07;;;;;;;6.32;3.40;;;9.30;99.90;;;;;;5016580;28;20029;-69
2022/04/15 08:59:34;;;;;;;7.00;3.58;;;9.20;99.90;;;;;;5033960;28;20068;-69
2022/04/15 09:01:59;;;;;;;5.70;3.72;;;9.20;99.90;;;;;;5016053;28;20469;-69
2022/04/15 09:04:26;;;;;;;7.93;4.93;;;9.30;99.90;;;;;;5016840;28;20045;-69
2022/04/15 09:06:56;;;;;;;7.15;4.38;;;9.40;99.90;;;;;;5015207;28;20120;-71
2022/04/15 09:09:29;;;;;;;7.28;4.90;;;9.40;99.90;;;;;;5014349;28;20046;-70
2022/04/15 09:11:56;;;;;;;9.52;5.88;;;9.40;99.90;;;;;;4996768;28;20050;-69
2022/04/15 09:14:24;;;;;;;10.35;6.63;;;9.40;99.90;;;;;;5013776;28;20419;-69
2022/04/15 09:16:51;;;;;;;10.40;6.70;;;9.40;99.90;;;;;;5014660;28;20037;-70
2022/04/15 09:19:18;;;;;;;9.85;6.35;;;9.40;99.90;;;;;;5016392;28;20045;-69
2022/04/15 09:21:52;;;;;;;11.45;6.78;;;9.50;99.90;;;;;;5016129;28;20124;-68
2022/04/15 09:24:42;;;;;;;8.73;6.60;;;9.60;99.90;;;;;;5033809;28;20053;-69
2022/04/15 09:27:07;;;;;;;10.73;6.45;;;9.60;99.90;;;;;;4977231;28;20058;-69
2022/04/15 09:29:34;;;;;;;12.15;7.03;;;9.60;99.90;;;;;;4994121;28;20049;-69
2022/04/15 09:32:14;;;;;;;11.50;7.45;;;9.70;99.90;;;;;;4976616;28;20375;-69
2022/04/15 09:35:04;;;;;;;10.13;7.03;;;9.70;99.90;;;;;;4997512;28;20046;-70
2022/04/15 09:37:42;;;;;;;11.73;7.28;;;9.80;99.90;;;;;;4977121;28;20046;-70
2022/04/15 09:40:12;;;;;;;11.18;7.50;;;9.70;99.90;;;;;;4994470;28;20054;-69
2022/04/15 09:42:52;;;;;;;12.68;6.50;;;9.80;99.90;;;;;;4994161;28;20471;-70
2022/04/15 09:45:19;;;;;;;10.45;7.15;;;9.80;99.90;;;;;;5017681;28;20092;-69
2022/04/15 09:47:52;;;;;;;12.75;7.38;;;9.90;99.90;;;;;;5015867;28;20382;-69
2022/04/15 09:50:25;;;;;;;18.05;7.82;;;9.90;99.90;;;;;;5016295;28;20049;-68
2022/04/15 09:52:51;;;;;;;12.40;7.30;;;10.00;99.90;;;;;;5033089;28;20045;-69
2022/04/15 09:55:21;;;;;;;12.10;7.90;;;10.20;99.90;;;;;;5033435;28;20029;-69
2022/04/15 09:57:48;;;;;;;10.10;7.55;;;10.10;99.90;;;;;;5033363;28;20351;-69
2022/04/15 10:00:16;;;;;;;14.70;8.32;;;10.20;99.90;;;;;;5033460;28;20037;-69
2022/04/15 10:02:43;;;;;;;11.32;7.80;;;10.30;99.90;;;;;;5033135;28;20037;-69
2022/04/15 10:05:12;;;;;;;12.95;8.30;;;10.50;99.90;;;;;;5029395;28;20049;-69
2022/04/15 10:07:40;;;;;;;11.85;7.97;;;10.40;99.90;;;;;;4996342;28;20038;-69
2022/04/15 10:10:07;;;;;;;11.38;7.57;;;10.40;99.90;;;;;;5013559;28;20046;-69
2022/04/15 10:12:39;;;;;;;12.32;7.63;;;10.40;99.90;;;;;;5014921;28;20132;-69
2022/04/15 10:15:06;;;;;;;13.18;8.68;;;10.40;99.90;;;;;;5020258;28;20033;-69
2022/04/15 10:17:34;;;;;;;12.98;7.90;;;10.50;99.90;;;;;;5019117;28;20049;-70
2022/04/15 10:20:02;;;;;;;13.65;8.32;;;10.70;99.90;;;;;;5019596;28;20059;-69
2022/04/15 10:22:30;;;;;;;15.70;9.07;;;10.60;99.90;;;;;;5019358;28;20047;-69
2022/04/15 10:24:55;;;;;;;12.73;8.50;;;10.50;99.90;;;;;;5019121;28;20042;-69
2022/04/15 10:27:29;;;;;;;12.48;8.35;;;10.50;99.90;;;;;;5036859;28;20045;-69
2022/04/15 10:30:19;;;;;;;13.90;8.57;;;10.60;99.90;;;;;;5036914;28;20053;-70
2022/04/15 10:32:57;;;;;;;12.15;8.27;;;10.80;99.90;;;;;;5036141;28;20125;-69
2022/04/15 10:35:41;;;;;;;12.82;7.45;;;10.90;99.90;;;;;;5002572;28;20520;-69
2022/04/15 10:38:13;;;;;;;13.73;7.60;;;11.00;99.90;;;;;;5019105;28;20072;-69
2022/04/15 10:40:45;;;;;;;12.00;7.53;;;11.00;99.90;;;;;;5019195;28;20106;-69
2022/04/15 10:43:25;;;;;;;9.50;6.97;;;11.10;99.90;;;;;;5018643;28;20069;-70
2022/04/15 10:46:10;;;;;;;12.60;7.00;;;11.20;99.90;;;;;;5002184;28;20394;-69
2022/04/15 10:48:37;;;;;;;12.73;7.55;;;11.20;99.90;;;;;;5036541;28;20041;-69
2022/04/15 10:51:29;;;;;;;11.30;7.45;;;11.20;99.90;;;;;;5036064;28;20056;-69
2022/04/15 10:53:56;;;;;;;10.48;7.90;;;11.10;99.90;;;;;;5036388;28;20107;-71
2022/04/15 10:56:24;;;;;;;12.27;7.60;;;11.10;99.90;;;;;;5001994;28;20038;-69
2022/04/15 11:01:50;;;;;;;13.75;7.72;;;11.00;99.90;;;;;;5035790;28;20045;-69
2022/04/15 11:04:23;;;;;;;14.63;7.15;;;11.00;99.90;;;;;;5018320;28;20049;-69
2022/04/15 11:06:49;;;;;;;13.38;7.00;;;11.00;99.90;;;;;;5018438;28;20520;-69
2022/04/15 11:09:15;;;;;;;12.65;7.13;;;11.10;99.90;;;;;;5018455;28;20045;-69
2022/04/15 11:12:02;;;;;;;10.68;6.97;;;11.20;99.90;;;;;;5018273;28;20037;-69
2022/04/15 11:14:46;;;;;;;11.57;6.35;;;11.40;99.90;;;;;;5035640;28;20402;-69
2022/04/15 11:17:13;;;;;;;10.85;6.13;;;11.40;99.90;;;;;;5018335;28;20045;-70
2022/04/15 11:19:40;;;;;;;10.18;6.68;;;11.50;99.90;;;;;;5018521;28;20038;-69
2022/04/15 11:22:07;;;;;;;12.85;6.22;;;11.50;99.90;;;;;;4997388;28;20030;-68
2022/04/15 11:24:38;;;;;;;10.82;5.93;;;11.60;99.90;;;;;;5014980;28;20129;-68
2022/04/15 11:27:04;;;;;;;9.23;5.55;;;11.80;99.90;;;;;;5034774;28;20037;-68
2022/04/15 11:29:31;;;;;;;12.98;6.32;;;11.90;99.90;;;;;;5002724;28;20124;-69
2022/04/15 11:32:05;;;;;;;12.48;7.70;;;11.90;99.90;;;;;;5034204;28;20468;-68
2022/04/15 11:34:32;;;;;;;9.88;5.68;;;12.00;99.90;;;;;;5015782;28;20046;-68
2022/04/15 11:37:02;;;;;;;12.48;6.40;;;12.20;99.90;;;;;;5015266;28;20033;-67
2022/04/15 11:39:28;;;;;;;11.32;5.57;;;12.20;99.90;;;;;;5025977;28;20125;-69
2022/04/15 11:41:59;;;;;;;8.90;5.28;;;12.40;99.90;;;;;;5035172;28;20044;-67
2022/04/15 11:44:30;;;;;;;12.07;5.80;;;12.60;99.90;;;;;;5033010;28;20486;-68
2022/04/15 11:47:16;;;;;;;11.73;5.30;;;12.70;99.90;;;;;;5018574;28;20120;-67
2022/04/15 11:49:43;;;;;;;10.80;5.45;;;12.70;99.90;;;;;;5032523;28;20041;-67
2022/04/15 11:52:09;;;;;;;9.43;5.82;;;12.80;99.90;;;;;;5015946;28;20033;-68
2022/04/15 11:54:39;;;;;;;10.75;5.65;;;12.80;99.90;;;;;;4998832;28;20034;-70
2022/04/15 11:57:06;;;;;;;8.98;5.30;;;12.80;99.90;;;;;;5016206;28;20125;-68
2022/04/15 11:59:42;;;;;;;11.10;5.13;;;12.60;99.90;;;;;;5016545;28;20110;-68
2022/04/15 12:02:09;;;;;;;10.70;5.13;;;12.70;99.90;;;;;;5028183;28;20413;-67
2022/04/15 12:04:35;;;;;;;9.60;6.13;;;12.80;99.90;;;;;;5015996;28;20106;-67
2022/04/15 12:07:03;;;;;;;8.75;5.25;;;12.80;99.90;;;;;;5013647;28;20446;-68
2022/04/15 12:09:30;;;;;;;10.25;5.50;;;12.80;99.90;;;;;;5033106;28;20042;-68
2022/04/15 12:11:55;;;;;;;8.38;5.28;;;12.90;99.90;;;;;;5031843;28;20076;-67
2022/04/15 12:14:35;;;;;;;11.50;5.38;;;12.70;99.90;;;;;;5031830;28;20077;-67
2022/04/15 12:17:03;;;;;;;11.23;5.60;;;12.50;99.90;;;;;;5027297;28;20045;-69
2022/04/15 12:19:28;;;;;;;11.45;5.57;;;12.80;99.90;;;;;;5044117;28;20393;-68
2022/04/15 12:21:54;;;;;;;10.80;6.25;;;12.70;99.90;;;;;;5015596;28;20049;-67
2022/04/15 12:24:22;;;;;;;8.15;5.10;;;12.70;99.90;;;;;;5033530;28;20088;-65
2022/04/15 12:26:54;;;;;;;12.75;5.90;;;12.70;99.90;;;;;;5027982;28;20425;-67
2022/04/15 12:32:22;;;;;;;9.65;5.35;;;12.80;99.90;;;;;;5031091;28;20049;-67
2022/04/15 12:35:11;;;;;;;274.63;40.78;;;12.70;99.90;;;;;;4997440;28;20387;-68
2022/04/15 12:37:47;;;;;;;11.02;5.75;;;12.80;99.90;;;;;;5014756;28;20121;-67
2022/04/15 12:40:14;;;;;;;45.97;9.90;;;12.80;99.90;;;;;;5014906;28;20049;-66
2022/04/15 12:42:41;;;;;;;24.10;6.53;;;12.80;99.90;;;;;;5014624;28;20046;-67
2022/04/15 12:45:25;;;;;;;196.43;27.52;;;12.90;99.90;;;;;;4999963;28;20056;-68
2022/04/15 12:48:01;;;;;;;9.40;5.37;;;13.10;99.90;;;;;;5034301;28;20048;-67
2022/04/15 12:50:33;;;;;;;13.82;5.72;;;13.00;99.90;;;;;;4997085;28;20289;-68
2022/04/15 12:53:00;;;;;;;8.77;5.05;;;13.20;99.90;;;;;;5013980;28;20410;-69
2022/04/15 12:55:33;;;;;;;9.07;4.63;;;13.20;99.90;;;;;;5002442;28;20045;-67
2022/04/15 12:58:15;;;;;;;12.25;5.20;;;13.20;99.90;;;;;;5034164;28;20438;-68
2022/04/15 13:00:41;;;;;;;9.55;4.75;;;13.20;99.90;;;;;;5034112;28;20466;-68